createdAt,value
2022-09-15T00:02:03.371Z,91429.03
2022-09-15T00:04:30.128Z,91435.78
2022-09-15T00:06:56.794Z,91423.00
2022-09-15T00:09:23.401Z,91411.72
2022-09-15T00:11:50.159Z,91418.13
2022-09-15T00:14:16.786Z,91412.09
2022-09-15T00:16:43.556Z,91417.75
2022-09-15T00:19:10.359Z,91410.22
2022-09-15T00:21:40.958Z,91404.19
2022-09-15T00:24:09.394Z,91412.47
2022-09-15T00:26:36.956Z,91412.84
2022-09-15T00:29:04.995Z,91407.19
2022-09-15T00:31:32.569Z,91406.44
2022-09-15T00:34:02.679Z,91411.38
2022-09-15T00:36:29.989Z,91410.22
2022-09-15T00:38:57.842Z,91407.19
2022-09-15T00:41:25.023Z,91405.72
2022-09-15T00:43:58.628Z,91401.94
2022-09-15T00:46:40.094Z,91400.84
2022-09-15T00:49:18.262Z,91403.47
2022-09-15T00:51:54.729Z,91409.84
2022-09-15T00:54:29.399Z,91407.97
2022-09-15T00:57:00.305Z,91398.59
2022-09-15T00:59:30.233Z,91403.47
2022-09-15T01:02:08.783Z,91393.66
2022-09-15T01:04:35.720Z,91377.88
2022-09-15T01:07:05.656Z,91382.41
2022-09-15T01:09:45.122Z,91386.16
2022-09-15T01:12:11.988Z,91390.69
2022-09-15T01:14:38.889Z,91374.13
2022-09-15T01:17:20.521Z,91365.84
2022-09-15T01:20:06.224Z,91376.38
2022-09-15T01:22:42.133Z,91371.13
2022-09-15T01:25:27.278Z,91390.69
2022-09-15T01:28:06.534Z,91391.03
2022-09-15T01:30:37.715Z,91391.41
2022-09-15T01:33:30.740Z,91383.16
2022-09-15T01:36:04.732Z,91385.78
2022-09-15T01:38:56.819Z,91386.91
2022-09-15T01:41:40.414Z,91379.41
2022-09-15T01:44:10.766Z,91380.88
2022-09-15T01:46:41.328Z,91377.53
2022-09-15T01:49:12.214Z,91365.09
2022-09-15T01:51:40.864Z,91360.59
2022-09-15T01:54:08.640Z,91374.13
2022-09-15T01:56:37.766Z,91362.47
2022-09-15T01:59:05.271Z,91368.09
2022-09-15T02:01:40.695Z,91360.59
2022-09-15T02:04:38.243Z,91343.31
2022-09-15T02:07:32.118Z,91369.63
2022-09-15T02:10:13.560Z,91360.59
2022-09-15T02:13:06.286Z,91363.97
2022-09-15T02:15:48.456Z,91369.63
2022-09-15T02:18:34.860Z,91356.81
2022-09-15T02:21:11.058Z,91364.38
2022-09-15T02:23:43.779Z,91341.78
2022-09-15T02:26:17.575Z,91364.38
2022-09-15T02:28:46.982Z,91359.09
2022-09-15T02:31:17.952Z,91348.94
2022-09-15T02:34:17.504Z,91351.59
2022-09-15T02:36:45.359Z,91344.81
2022-09-15T02:39:17.537Z,91355.34
2022-09-15T02:41:44.169Z,91351.22
2022-09-15T02:44:10.890Z,91352.31
2022-09-15T02:46:39.214Z,91349.31
2022-09-15T02:49:06.044Z,91351.94
2022-09-15T02:51:32.718Z,91358.34
2022-09-15T02:53:59.991Z,91354.94
2022-09-15T02:56:26.734Z,91359.84
2022-09-15T02:58:53.355Z,91347.44
2022-09-15T03:01:20.127Z,91353.47
2022-09-15T03:03:47.632Z,91351.56
2022-09-15T03:06:17.063Z,91356.81
2022-09-15T03:08:58.767Z,91353.84
2022-09-15T03:11:27.245Z,91359.84
2022-09-15T03:14:02.911Z,91365.84
2022-09-15T03:16:31.512Z,91368.09
2022-09-15T03:18:59.777Z,91363.59
2022-09-15T03:21:29.401Z,91359.44
2022-09-15T03:23:57.786Z,91356.81
2022-09-15T03:26:25.216Z,91342.16
2022-09-15T03:28:51.878Z,91356.81
2022-09-15T03:31:19.912Z,91368.47
2022-09-15T03:33:47.144Z,91350.06
2022-09-15T03:36:13.906Z,91367.00
2022-09-15T03:38:40.524Z,91355.69
2022-09-15T03:41:11.355Z,91365.47
2022-09-15T03:43:38.530Z,91361.34
2022-09-15T03:46:06.867Z,91361.72
2022-09-15T03:48:35.529Z,91351.19
2022-09-15T03:51:05.869Z,91329.78
2022-09-15T03:53:34.547Z,91351.56
2022-09-15T03:56:13.792Z,91361.69
2022-09-15T03:58:40.703Z,91360.13
2022-09-15T04:01:07.503Z,91359.78
2022-09-15T04:03:37.435Z,91362.41
2022-09-15T04:06:07.403Z,91361.31
2022-09-15T04:08:34.057Z,91359.81
2022-09-15T04:11:05.875Z,91359.81
2022-09-15T04:13:32.729Z,91339.13
2022-09-15T04:16:10.369Z,91363.22
2022-09-15T04:18:37.729Z,91370.00
2022-09-15T04:21:07.368Z,91370.00
2022-09-15T04:23:34.751Z,91364.34
2022-09-15T04:26:07.820Z,91364.72
2022-09-15T04:28:37.026Z,91363.97
2022-09-15T04:31:12.128Z,91371.13
2022-09-15T04:33:39.643Z,91370.72
2022-09-15T04:36:12.375Z,91373.38
2022-09-15T04:38:39.087Z,91369.63
2022-09-15T04:41:06.847Z,91361.72
2022-09-15T04:43:33.875Z,91363.97
2022-09-15T04:46:00.696Z,91362.81
2022-09-15T04:48:28.038Z,91372.56
2022-09-15T04:50:54.850Z,91370.31
2022-09-15T04:53:21.679Z,91368.81
2022-09-15T04:55:48.312Z,91381.97
2022-09-15T04:58:14.937Z,91371.44
2022-09-15T05:00:45.887Z,91377.41
2022-09-15T05:03:14.173Z,91378.50
2022-09-15T05:05:41.684Z,91382.22
2022-09-15T05:08:08.368Z,91377.31
2022-09-15T05:10:35.355Z,91386.69
2022-09-15T05:13:02.137Z,91386.78
2022-09-15T05:15:28.792Z,91380.66
2022-09-15T05:17:55.594Z,91378.59
2022-09-15T05:20:22.747Z,91386.66
2022-09-15T05:22:49.739Z,91384.19
2022-09-15T05:25:16.455Z,91389.13
2022-09-15T05:27:43.126Z,91382.91
2022-09-15T05:30:35.938Z,91383.34
2022-09-15T05:32:57.134Z,91385.59
2022-09-15T05:35:23.875Z,91384.03
2022-09-15T05:37:50.511Z,91376.81
2022-09-15T05:40:17.312Z,91380.94
2022-09-15T05:42:43.954Z,91379.13
2022-09-15T05:45:11.181Z,91378.53
2022-09-15T05:47:37.781Z,91370.31
2022-09-15T05:50:04.700Z,91381.63
2022-09-15T05:52:31.390Z,91379.03
2022-09-15T05:54:59.344Z,91380.91
2022-09-15T05:57:26.370Z,91377.41
2022-09-15T05:59:52.959Z,91377.84
2022-09-15T06:02:19.577Z,91371.50
2022-09-15T06:04:46.235Z,91373.31
2022-09-15T06:07:13.169Z,91370.03
2022-09-15T06:09:40.081Z,91373.84
2022-09-15T06:12:06.860Z,91373.47
2022-09-15T06:14:33.504Z,91374.25
2022-09-15T06:17:00.192Z,91363.53
2022-09-15T06:19:26.895Z,91351.47
2022-09-15T06:21:53.905Z,91360.81
2022-09-15T06:24:20.655Z,91359.06
2022-09-15T06:26:47.368Z,91345.59
2022-09-15T06:29:14.173Z,91343.00
2022-09-15T06:31:40.913Z,91345.50
2022-09-15T06:34:08.716Z,91341.25
2022-09-15T06:36:37.029Z,91336.41
2022-09-15T06:39:03.866Z,91347.44
2022-09-15T06:41:47.022Z,91341.66
2022-09-15T06:44:17.659Z,91348.19
2022-09-15T06:46:46.942Z,91344.50
2022-09-15T06:49:14.151Z,91331.72
2022-09-15T06:51:40.829Z,91340.28
2022-09-15T06:54:07.766Z,91342.69
2022-09-15T06:56:38.143Z,91329.34
2022-09-15T06:59:05.349Z,91331.22
2022-09-15T07:01:32.705Z,91347.66
2022-09-15T07:04:01.604Z,91343.78
2022-09-15T07:06:30.016Z,91331.56
2022-09-15T07:08:58.625Z,91341.00
2022-09-15T07:11:26.056Z,91326.88
2022-09-15T07:13:53.022Z,91346.81
2022-09-15T07:16:20.832Z,91347.25
2022-09-15T07:18:49.024Z,91345.59
2022-09-15T07:21:18.608Z,91348.38
2022-09-15T07:23:46.208Z,91348.84
2022-09-15T07:26:15.686Z,91359.63
2022-09-15T07:28:44.354Z,91335.41
2022-09-15T07:31:13.573Z,91350.78
2022-09-15T07:33:40.363Z,91340.75
2022-09-15T07:36:08.508Z,91344.09
2022-09-15T07:38:38.855Z,91345.75
2022-09-15T07:41:07.661Z,91352.91
2022-09-15T07:43:34.604Z,91346.44
2022-09-15T07:46:02.330Z,91344.06
2022-09-15T07:48:30.221Z,91351.31
2022-09-15T07:50:57.268Z,91345.34
2022-09-15T07:53:24.163Z,91345.69
2022-09-15T07:55:54.853Z,91357.19
2022-09-15T07:58:22.324Z,91345.72
2022-09-15T08:00:49.793Z,91326.91
2022-09-15T08:03:16.842Z,91324.53
2022-09-15T08:05:45.774Z,91344.91
2022-09-15T08:08:12.955Z,91340.44
2022-09-15T08:10:41.382Z,91339.25
2022-09-15T08:13:08.611Z,91338.06
2022-09-15T08:15:37.617Z,91330.41
2022-09-15T08:18:05.970Z,91329.34
2022-09-15T08:20:33.198Z,91330.50
2022-09-15T08:22:59.926Z,91329.63
2022-09-15T08:25:26.669Z,91329.84
2022-09-15T08:27:55.129Z,91325.34
2022-09-15T08:30:22.515Z,91326.19
2022-09-15T08:32:50.472Z,91327.00
2022-09-15T08:35:18.595Z,91332.97
2022-09-15T08:37:46.248Z,91332.72
2022-09-15T08:40:30.709Z,91328.00
2022-09-15T08:43:05.501Z,91333.84
2022-09-15T08:45:45.069Z,91316.38
2022-09-15T08:48:15.822Z,91329.53
2022-09-15T08:50:47.620Z,91324.16
2022-09-15T08:53:24.090Z,91333.94
2022-09-15T08:55:54.824Z,91329.69
2022-09-15T08:58:39.734Z,91326.28
2022-09-15T09:01:23.058Z,91310.75
2022-09-15T09:04:33.104Z,91300.44
2022-09-15T09:07:15.476Z,91303.50
2022-09-15T09:10:07.036Z,91295.56
2022-09-15T09:12:59.875Z,91287.53
2022-09-15T09:15:51.222Z,91281.50
2022-09-15T09:18:36.221Z,91287.66
2022-09-15T09:21:02.886Z,91290.59
2022-09-15T09:23:43.821Z,91287.63
2022-09-15T09:26:13.004Z,91281.69
2022-09-15T09:28:53.167Z,91274.44
2022-09-15T09:31:23.020Z,91277.72
2022-09-15T09:33:55.434Z,91259.69
2022-09-15T09:36:22.573Z,91265.34
2022-09-15T09:38:50.727Z,91259.97
2022-09-15T09:41:23.408Z,91264.25
2022-09-15T09:43:52.386Z,91253.25
2022-09-15T09:46:20.385Z,91255.84
2022-09-15T09:49:17.088Z,91242.56
2022-09-15T09:52:00.078Z,91250.41
2022-09-15T09:54:31.418Z,91245.69
2022-09-15T09:57:23.179Z,91253.53
2022-09-15T09:59:50.800Z,91246.22
2022-09-15T10:02:21.997Z,91234.56
2022-09-15T10:04:53.183Z,91240.88
2022-09-15T10:07:24.609Z,91228.59
2022-09-15T10:10:02.127Z,91221.63
2022-09-15T10:12:32.211Z,91236.59
2022-09-15T10:15:02.546Z,91222.53
2022-09-15T10:17:44.804Z,91230.28
2022-09-15T10:20:38.942Z,91225.38
2022-09-15T10:23:27.686Z,91228.78
2022-09-15T10:26:00.717Z,91227.41
2022-09-15T10:28:28.144Z,91233.09
2022-09-15T10:30:59.846Z,91224.81
2022-09-15T10:33:29.592Z,91216.91
2022-09-15T10:36:04.010Z,91217.34
2022-09-15T10:38:42.084Z,91216.63
2022-09-15T10:41:08.792Z,91216.97
2022-09-15T10:43:35.400Z,91203.38
2022-09-15T10:46:09.331Z,91194.59
2022-09-15T10:48:49.044Z,91204.41
2022-09-15T10:51:36.967Z,91202.03
2022-09-15T10:54:24.876Z,91199.09
2022-09-15T10:56:58.350Z,91184.81
2022-09-15T10:59:32.094Z,91183.44
2022-09-15T11:02:01.698Z,91185.75
2022-09-15T11:04:43.068Z,91184.00
2022-09-15T11:07:33.811Z,91188.00
2022-09-15T11:10:03.273Z,91181.31
2022-09-15T11:12:56.490Z,91194.53
2022-09-15T11:15:31.033Z,91200.25
2022-09-15T11:18:12.615Z,91186.38
2022-09-15T11:20:54.548Z,91187.69
2022-09-15T11:23:29.559Z,91168.38
2022-09-15T11:26:22.074Z,91184.25
2022-09-15T11:28:57.802Z,91183.84
2022-09-15T11:31:34.498Z,91188.97
2022-09-15T11:34:11.910Z,91191.91
2022-09-15T11:36:48.627Z,91178.00
2022-09-15T11:39:30.506Z,91178.34
2022-09-15T11:42:18.897Z,91180.50
2022-09-15T11:44:48.007Z,91197.72
2022-09-15T11:47:36.576Z,91190.34
2022-09-15T11:50:20.802Z,91185.94
2022-09-15T11:53:02.826Z,91194.34
2022-09-15T11:55:55.924Z,91184.31
2022-09-15T11:58:53.280Z,91194.47
2022-09-15T12:01:24.867Z,91189.69
2022-09-15T12:04:03.461Z,91193.63
2022-09-15T12:07:14.604Z,91175.88
2022-09-15T12:09:41.637Z,91178.09
2022-09-15T12:12:16.955Z,91162.44
2022-09-15T12:14:49.315Z,91184.19
2022-09-15T12:17:38.957Z,91173.28
2022-09-15T12:20:17.511Z,91174.66
2022-09-15T12:22:53.457Z,91166.38
2022-09-15T12:25:26.521Z,91182.91
2022-09-15T12:28:24.421Z,91184.47
2022-09-15T12:31:13.962Z,91159.94
2022-09-15T12:33:45.045Z,91185.44
2022-09-15T12:36:45.815Z,91171.00
2022-09-15T12:39:38.360Z,91177.41
2022-09-15T12:42:12.535Z,91165.06
2022-09-15T12:44:54.627Z,91170.75
2022-09-15T12:48:10.116Z,91172.94
2022-09-15T12:50:41.066Z,91165.13
2022-09-15T12:56:08.320Z,91172.97
2022-09-15T12:58:51.460Z,91181.81
2022-09-15T13:01:27.215Z,91173.94
2022-09-15T13:03:55.337Z,91161.13
2022-09-15T13:06:23.456Z,91157.47
2022-09-15T13:09:02.215Z,91162.09
2022-09-15T13:11:37.122Z,91160.75
2022-09-15T13:14:03.997Z,91165.88
2022-09-15T13:16:46.565Z,91161.03
2022-09-15T13:19:25.516Z,91159.06
2022-09-15T13:22:10.981Z,91163.28
2022-09-15T13:25:13.830Z,91155.19
2022-09-15T13:28:01.823Z,91151.31
2022-09-15T13:30:52.904Z,91159.84
2022-09-15T13:35:02.219Z,91169.69
2022-09-15T13:39:31.857Z,91161.88
2022-09-15T13:42:42.271Z,91146.63
2022-09-15T13:45:27.314Z,91154.75
2022-09-15T13:48:01.870Z,91172.22
2022-09-15T13:50:37.150Z,91162.13
2022-09-15T13:53:30.783Z,91154.31
2022-09-15T13:56:06.194Z,91150.38
2022-09-15T14:01:23.196Z,91154.31
2022-09-15T14:04:05.278Z,91145.22
2022-09-15T14:06:45.019Z,91126.53
2022-09-15T14:09:27.197Z,91135.16
2022-09-15T14:11:58.020Z,91156.72
2022-09-15T14:14:27.628Z,91151.06
2022-09-15T14:16:55.971Z,91149.53
2022-09-15T14:19:32.477Z,91140.88
2022-09-15T14:22:00.939Z,91144.06
2022-09-15T14:24:30.750Z,91152.34
2022-09-15T14:27:00.939Z,91159.31
2022-09-15T14:29:28.030Z,91160.78
2022-09-15T14:32:00.901Z,91157.25
2022-09-15T14:34:31.804Z,91159.78
2022-09-15T14:37:07.335Z,91160.00
2022-09-15T14:39:37.729Z,91148.84
2022-09-15T14:42:22.225Z,91154.75
2022-09-15T14:47:39.075Z,91171.09
2022-09-15T14:50:22.134Z,91158.16
2022-09-15T14:52:51.873Z,91165.44
2022-09-15T14:55:33.788Z,91151.47
2022-09-15T14:58:11.575Z,91149.59
2022-09-15T15:01:00.016Z,91153.72
2022-09-15T15:03:51.643Z,91142.44
2022-09-15T15:06:30.757Z,91154.41
2022-09-15T15:09:09.750Z,91150.56
2022-09-15T15:11:39.393Z,91141.53
2022-09-15T15:14:08.594Z,91147.13
2022-09-15T15:16:35.945Z,91143.34
2022-09-15T15:19:02.913Z,91139.19
2022-09-15T15:21:35.727Z,91133.91
2022-09-15T15:24:17.498Z,91151.22
2022-09-15T15:26:46.276Z,91138.25
2022-09-15T15:29:41.028Z,91147.22
2022-09-15T15:32:13.558Z,91146.44
2022-09-15T15:34:40.630Z,91149.88
2022-09-15T15:37:23.218Z,91147.84
2022-09-15T15:39:50.098Z,91143.69
2022-09-15T15:42:17.198Z,91147.66
2022-09-15T15:45:09.421Z,91156.00
2022-09-15T15:47:37.184Z,91145.53
2022-09-15T15:50:16.298Z,91161.47
2022-09-15T15:52:44.038Z,91157.34
2022-09-15T15:55:39.119Z,91166.28
2022-09-15T15:58:05.813Z,91165.09
2022-09-15T16:00:40.926Z,91154.72
2022-09-15T16:03:08.860Z,91157.00
2022-09-15T16:05:35.939Z,91161.19
2022-09-15T16:08:30.122Z,91159.44
2022-09-15T16:10:57.728Z,91162.53
2022-09-15T16:13:25.298Z,91161.03
2022-09-15T16:15:57.898Z,91159.22
2022-09-15T16:18:25.098Z,91160.91
2022-09-15T16:20:52.324Z,91142.31
2022-09-15T16:23:22.413Z,91153.44
2022-09-15T16:26:04.087Z,91159.34
2022-09-15T16:28:30.995Z,91161.75
2022-09-15T16:30:58.714Z,91154.16
2022-09-15T16:33:26.211Z,91167.38
2022-09-15T16:36:07.012Z,91164.59
2022-09-15T16:38:36.878Z,91167.28
2022-09-15T16:41:06.295Z,91173.94
2022-09-15T16:43:32.926Z,91170.97
2022-09-15T16:45:59.677Z,91181.31
2022-09-15T16:48:27.357Z,91175.28
2022-09-15T16:51:20.481Z,91168.50
2022-09-15T16:53:41.331Z,91178.41
2022-09-15T16:56:11.520Z,91177.28
2022-09-15T16:58:38.936Z,91179.66
2022-09-15T17:01:06.685Z,91191.06
2022-09-15T17:03:34.327Z,91190.19
2022-09-15T17:06:02.012Z,91193.53
2022-09-15T17:08:32.256Z,91194.75
2022-09-15T17:11:02.573Z,91194.16
2022-09-15T17:13:31.971Z,91197.84
2022-09-15T17:16:00.528Z,91187.16
2022-09-15T17:18:28.247Z,91201.41
2022-09-15T17:20:55.801Z,91198.78
2022-09-15T17:23:35.700Z,91212.50
2022-09-15T17:26:05.470Z,91206.81
2022-09-15T17:28:34.826Z,91217.81
2022-09-15T17:31:11.917Z,91216.19
2022-09-15T17:33:39.554Z,91203.25
2022-09-15T17:36:06.990Z,91213.94
2022-09-15T17:38:34.569Z,91212.13
2022-09-15T17:41:01.375Z,91223.56
2022-09-15T17:43:30.381Z,91225.03
2022-09-15T17:45:57.173Z,91219.53
2022-09-15T17:48:24.826Z,91227.41
2022-09-15T17:50:52.365Z,91222.59
2022-09-15T17:53:21.484Z,91224.09
2022-09-15T17:55:49.422Z,91222.19
2022-09-15T17:58:16.958Z,91229.69
2022-09-15T18:00:44.931Z,91232.53
2022-09-15T18:03:28.075Z,91239.97
2022-09-15T18:05:56.836Z,91220.88
2022-09-15T18:08:23.577Z,91234.00
2022-09-15T18:10:50.831Z,91232.03
2022-09-15T18:13:20.786Z,91232.09
2022-09-15T18:15:49.071Z,91221.34
2022-09-15T18:18:24.744Z,91225.06
2022-09-15T18:20:53.341Z,91224.44
2022-09-15T18:23:22.649Z,91228.31
2022-09-15T18:25:50.364Z,91234.72
2022-09-15T18:28:18.702Z,91231.13
2022-09-15T18:30:48.123Z,91222.94
2022-09-15T18:33:16.818Z,91227.75
2022-09-15T18:35:43.924Z,91222.22
2022-09-15T18:38:11.460Z,91208.19
2022-09-15T18:40:38.564Z,91212.53
2022-09-15T18:43:05.706Z,91216.72
2022-09-15T18:45:32.464Z,91210.13
2022-09-15T18:47:59.288Z,91211.41
2022-09-15T18:50:26.008Z,91208.22
2022-09-15T18:52:53.207Z,91211.41
2022-09-15T18:55:21.952Z,91206.72
2022-09-15T18:57:49.443Z,91210.69
2022-09-15T19:00:23.076Z,91213.66
2022-09-15T19:02:55.551Z,91215.91
2022-09-15T19:05:22.183Z,91210.13
2022-09-15T19:07:49.089Z,91217.28
2022-09-15T19:10:17.465Z,91212.28
2022-09-15T19:12:44.666Z,91212.06
2022-09-15T19:15:13.768Z,91217.78
2022-09-15T19:17:41.906Z,91215.56
2022-09-15T19:20:11.376Z,91213.84
2022-09-15T19:22:38.427Z,91210.63
2022-09-15T19:25:06.559Z,91215.53
2022-09-15T19:27:33.421Z,91215.34
2022-09-15T19:30:00.499Z,91219.94
2022-09-15T19:32:27.712Z,91214.06
2022-09-15T19:34:54.520Z,91210.78
2022-09-15T19:37:22.194Z,91213.25
2022-09-15T19:39:49.583Z,91213.47
2022-09-15T19:42:16.892Z,91211.53
2022-09-15T19:44:43.827Z,91211.06
2022-09-15T19:47:10.825Z,91204.72
2022-09-15T19:49:37.727Z,91208.47
2022-09-15T19:52:06.495Z,91205.88
2022-09-15T19:54:34.659Z,91205.53
2022-09-15T19:57:02.142Z,91201.91
2022-09-15T19:59:31.374Z,91202.66
2022-09-15T20:01:59.263Z,91209.44
2022-09-15T20:04:26.164Z,91208.88
2022-09-15T20:06:52.838Z,91208.88
2022-09-15T20:09:19.507Z,91204.72
2022-09-15T20:11:46.217Z,91211.88
2022-09-15T20:14:13.670Z,91204.22
2022-09-15T20:16:40.735Z,91209.13
2022-09-15T20:19:07.678Z,91191.13
2022-09-15T20:21:52.260Z,91202.91
2022-09-15T20:24:19.779Z,91199.50
2022-09-15T20:26:46.523Z,91213.84
2022-09-15T20:29:13.755Z,91204.47
2022-09-15T20:31:40.838Z,91203.22
2022-09-15T20:34:07.672Z,91208.28
2022-09-15T20:36:36.782Z,91203.63
2022-09-15T20:39:05.874Z,91213.84
2022-09-15T20:41:32.526Z,91217.66
2022-09-15T20:44:00.301Z,91211.19
2022-09-15T20:46:31.604Z,91212.00
2022-09-15T20:48:58.344Z,91214.19
2022-09-15T20:51:27.982Z,91210.19
2022-09-15T20:53:56.785Z,91208.84
2022-09-15T20:56:28.540Z,91213.09
2022-09-15T20:58:58.510Z,91219.31
2022-09-15T21:01:32.505Z,91219.97
2022-09-15T21:03:59.414Z,91224.16
2022-09-15T21:06:27.648Z,91222.16
2022-09-15T21:08:56.163Z,91223.75
2022-09-15T21:11:24.149Z,91223.47
2022-09-15T21:13:51.148Z,91221.22
2022-09-15T21:16:22.107Z,91218.72
2022-09-15T21:18:50.507Z,91219.19
2022-09-15T21:21:20.487Z,91211.19
2022-09-15T21:24:03.861Z,91212.63
2022-09-15T21:26:59.211Z,91203.75
2022-09-15T21:29:27.728Z,91189.31
2022-09-15T21:31:55.875Z,91194.69
2022-09-15T21:34:22.719Z,91192.72
2022-09-15T21:36:51.861Z,91179.50
2022-09-15T21:39:18.539Z,91186.47
2022-09-15T21:41:45.295Z,91180.91
2022-09-15T21:44:11.970Z,91182.56
2022-09-15T21:46:38.583Z,91201.03
2022-09-15T21:49:05.756Z,91203.75
2022-09-15T21:51:32.979Z,91201.72
2022-09-15T21:54:00.677Z,91194.63
2022-09-15T21:56:28.835Z,91184.72
2022-09-15T21:58:55.760Z,91180.97
2022-09-15T22:01:25.407Z,91185.66
2022-09-15T22:03:56.644Z,91192.53
2022-09-15T22:06:33.296Z,91183.69
2022-09-15T22:09:01.686Z,91178.88
2022-09-15T22:11:28.834Z,91189.47
2022-09-15T22:13:55.867Z,91182.41
2022-09-15T22:16:24.369Z,91186.75
2022-09-15T22:18:52.039Z,91182.16
2022-09-15T22:21:27.852Z,91184.00
2022-09-15T22:23:56.463Z,91185.66
2022-09-15T22:26:28.704Z,91182.75
2022-09-15T22:28:56.122Z,91185.81
2022-09-15T22:31:24.362Z,91183.38
2022-09-15T22:33:51.277Z,91185.34
2022-09-15T22:36:30.332Z,91175.16
2022-09-15T22:39:05.273Z,91183.28
2022-09-15T22:41:38.465Z,91159.25
2022-09-15T22:44:06.653Z,91187.72
2022-09-15T22:46:33.448Z,91183.19
2022-09-15T22:49:00.223Z,91184.00
2022-09-15T22:51:26.931Z,91186.13
2022-09-15T22:53:54.894Z,91178.09
2022-09-15T22:56:21.638Z,91182.91
2022-09-15T22:58:49.550Z,91175.16
2022-09-15T23:01:22.252Z,91173.44
2022-09-15T23:03:54.428Z,91175.28
2022-09-15T23:06:21.509Z,91175.75
2022-09-15T23:08:52.986Z,91173.28
2022-09-15T23:11:21.083Z,91173.44
2022-09-15T23:13:48.217Z,91173.91
2022-09-15T23:16:17.755Z,91174.97
2022-09-15T23:18:44.989Z,91168.56
2022-09-15T23:21:12.897Z,91173.25
2022-09-15T23:23:41.676Z,91165.75
2022-09-15T23:26:10.376Z,91164.22
2022-09-15T23:28:39.261Z,91160.66
2022-09-15T23:31:07.590Z,91158.91
2022-09-15T23:33:34.811Z,91165.75
2022-09-15T23:36:03.790Z,91166.81
2022-09-15T23:38:31.371Z,91159.84
2022-09-15T23:40:58.097Z,91161.81
2022-09-15T23:43:24.826Z,91169.09
2022-09-15T23:45:51.752Z,91165.47
2022-09-15T23:48:18.715Z,91167.97
2022-09-15T23:50:45.631Z,91168.66
2022-09-15T23:53:12.868Z,91168.03
2022-09-15T23:55:39.704Z,91178.44
2022-09-15T23:58:06.509Z,91173.16
